Time;durP1;ratioP1;P1;durP2;ratioP2;P2;SDS_P1;SDS_P2;PMS_P1;PMS_P2;Temp;Humidity;BMP_temperature;BMP_pressure;BME280_temperature;BME280_humidity;BME280_pressure;Samples;Min_cycle;Max_cycle;Signal;HPM_P1;HPM_P2
2021/12/11 00:02:10;;;;;;;3.83;3.53;;;16.70;27.50;;;;;;5075856;28;20212;-70
2021/12/11 00:04:41;;;;;;;3.53;3.22;;;16.70;27.50;;;;;;5076460;28;20216;-70
2021/12/11 00:07:12;;;;;;;3.67;3.38;;;16.70;27.50;;;;;;5076100;28;20208;-69
2021/12/11 00:09:43;;;;;;;4.00;3.60;;;16.70;27.50;;;;;;5076064;28;20209;-69
2021/12/11 00:12:17;;;;;;;3.70;3.40;;;16.70;27.50;;;;;;5075857;28;20243;-69
2021/12/11 00:14:47;;;;;;;3.50;3.20;;;16.70;27.60;;;;;;5076371;28;20572;-68
2021/12/11 00:17:22;;;;;;;3.58;3.28;;;16.70;27.50;;;;;;5076102;28;20201;-69
2021/12/11 00:19:49;;;;;;;3.83;3.53;;;16.70;28.20;;;;;;5076488;28;20231;-69
2021/12/11 00:22:20;;;;;;;3.60;3.20;;;16.70;27.50;;;;;;5076380;28;20223;-69
2021/12/11 00:24:50;;;;;;;3.80;3.50;;;16.70;27.50;;;;;;5076134;28;20216;-69
2021/12/11 00:27:20;;;;;;;3.95;3.50;;;16.70;27.50;;;;;;5075973;28;20208;-71
2021/12/11 00:29:48;;;;;;;3.83;3.53;;;16.70;27.50;;;;;;5076123;28;20221;-69
2021/12/11 00:32:23;;;;;;;3.30;3.00;;;16.70;27.50;;;;;;5076360;28;20281;-69
2021/12/11 00:34:52;;;;;;;3.80;3.50;;;16.70;27.50;;;;;;5076709;28;20234;-69
2021/12/11 00:37:22;;;;;;;3.63;3.30;;;16.70;27.50;;;;;;5076231;28;20216;-70
2021/12/11 00:39:54;;;;;;;3.78;3.47;;;16.70;27.40;;;;;;5076804;28;20319;-68
2021/12/11 00:42:30;;;;;;;3.67;3.38;;;16.70;27.50;;;;;;5076730;28;20201;-70
2021/12/11 00:44:59;;;;;;;3.83;3.53;;;16.70;27.50;;;;;;5065686;28;20232;-71
2021/12/11 00:47:31;;;;;;;3.60;3.30;;;16.70;27.50;;;;;;5076712;28;20576;-71
2021/12/11 00:50:02;;;;;;;4.15;3.75;;;16.70;27.50;;;;;;5076741;28;20205;-71
2021/12/11 00:52:31;;;;;;;4.10;3.70;;;16.70;27.50;;;;;;5076501;28;20235;-70
2021/12/11 00:55:01;;;;;;;3.78;3.45;;;16.70;27.50;;;;;;5076323;28;20512;-70
2021/12/11 00:57:29;;;;;;;3.90;3.60;;;16.70;27.50;;;;;;5076852;28;20355;-69
2021/12/11 01:00:01;;;;;;;3.90;3.60;;;16.70;27.50;;;;;;5076577;28;20220;-69
2021/12/11 01:02:29;;;;;;;4.28;3.97;;;16.70;27.50;;;;;;5076293;28;20629;-69
2021/12/11 01:04:56;;;;;;;4.13;3.72;;;16.70;27.50;;;;;;5076627;28;20207;-70
2021/12/11 01:07:28;;;;;;;5.50;3.80;;;16.70;27.50;;;;;;5075104;28;20228;-69
2021/12/11 01:09:59;;;;;;;4.13;3.83;;;16.70;27.50;;;;;;5073040;28;20200;-69
2021/12/11 01:12:38;;;;;;;5.15;4.10;;;16.70;27.60;;;;;;5075752;28;20489;-70
2021/12/11 01:15:14;;;;;;;4.25;3.85;;;16.70;27.50;;;;;;5056263;28;20607;-70
2021/12/11 01:17:49;;;;;;;3.90;3.60;;;16.70;27.50;;;;;;5056215;28;20662;-70
2021/12/11 01:20:22;;;;;;;4.40;4.00;;;16.70;27.50;;;;;;5056342;28;20411;-69
2021/12/11 01:22:50;;;;;;;4.35;3.95;;;16.70;27.50;;;;;;5056284;28;20205;-70
2021/12/11 01:25:21;;;;;;;4.05;3.70;;;16.70;27.60;;;;;;5055704;28;20220;-69
2021/12/11 01:27:53;;;;;;;3.78;3.47;;;16.70;27.50;;;;;;5056336;28;20205;-70
2021/12/11 01:30:24;;;;;;;5.25;3.80;;;16.70;27.50;;;;;;5056252;28;20205;-69
2021/12/11 01:32:51;;;;;;;3.75;3.45;;;16.70;27.40;;;;;;5071150;28;20200;-69
2021/12/11 01:35:19;;;;;;;3.83;3.53;;;16.70;27.50;;;;;;5056067;28;20211;-69
2021/12/11 01:37:49;;;;;;;5.75;4.30;;;16.70;27.50;;;;;;5044356;28;20272;-70
2021/12/11 01:40:20;;;;;;;4.20;3.90;;;16.70;27.30;;;;;;5055402;28;20225;-69
2021/12/11 01:42:49;;;;;;;4.55;4.15;;;16.60;27.20;;;;;;5055628;28;20209;-69
2021/12/11 01:45:19;;;;;;;4.35;3.95;;;16.60;27.10;;;;;;5055997;28;20209;-69
2021/12/11 01:47:48;;;;;;;4.38;3.90;;;16.60;27.20;;;;;;5055301;28;20209;-70
2021/12/11 01:50:21;;;;;;;4.22;3.92;;;16.50;26.90;;;;;;5056127;28;20216;-70
2021/12/11 01:52:54;;;;;;;4.15;3.75;;;16.50;26.80;;;;;;5055796;28;20209;-69
2021/12/11 01:55:31;;;;;;;4.22;3.88;;;16.50;26.90;;;;;;5055855;28;20220;-69
2021/12/11 01:58:01;;;;;;;4.53;4.13;;;16.50;26.80;;;;;;5056112;28;20216;-69
2021/12/11 02:00:32;;;;;;;4.35;4.05;;;16.40;26.70;;;;;;5072027;28;20246;-69
2021/12/11 02:03:04;;;;;;;4.70;4.30;;;16.40;26.90;;;;;;5075408;28;20223;-69
2021/12/11 02:05:35;;;;;;;4.63;4.22;;;16.40;26.80;;;;;;5075619;28;20201;-69
2021/12/11 02:08:07;;;;;;;4.10;3.80;;;16.40;26.70;;;;;;5075646;28;20211;-70
2021/12/11 02:10:38;;;;;;;4.20;3.90;;;16.30;26.70;;;;;;5075267;28;20232;-70
2021/12/11 02:13:11;;;;;;;4.68;4.07;;;16.30;26.80;;;;;;5075578;28;20262;-69
2021/12/11 02:15:47;;;;;;;4.35;4.00;;;16.30;26.60;;;;;;5075703;28;20307;-70
2021/12/11 02:18:18;;;;;;;4.60;4.28;;;16.30;26.90;;;;;;5075247;28;20200;-70
2021/12/11 02:20:51;;;;;;;4.40;4.00;;;16.30;27.00;;;;;;5075851;28;20774;-68
2021/12/11 02:23:19;;;;;;;4.47;4.00;;;16.30;27.40;;;;;;5075510;28;20224;-68
2021/12/11 02:25:50;;;;;;;4.82;4.32;;;16.20;26.70;;;;;;5075183;28;20209;-69
2021/12/11 02:28:24;;;;;;;4.60;4.20;;;16.20;26.70;;;;;;5064337;28;20239;-68
2021/12/11 02:30:54;;;;;;;4.45;4.05;;;16.20;26.80;;;;;;5075015;28;20501;-69
2021/12/11 02:33:25;;;;;;;4.50;4.10;;;16.20;26.70;;;;;;5074820;28;20228;-69
2021/12/11 02:35:57;;;;;;;4.72;4.32;;;16.20;26.90;;;;;;5075171;28;20219;-70
2021/12/11 02:38:31;;;;;;;4.50;4.10;;;16.10;26.90;;;;;;5075411;28;20204;-70
2021/12/11 02:41:04;;;;;;;4.85;4.45;;;16.10;26.80;;;;;;5075464;28;20598;-70
2021/12/11 02:43:37;;;;;;;4.43;4.03;;;16.10;26.80;;;;;;5075052;28;20556;-70
2021/12/11 02:46:10;;;;;;;4.68;4.28;;;16.10;26.80;;;;;;5075523;28;20257;-70
2021/12/11 02:48:42;;;;;;;4.90;4.50;;;16.00;26.80;;;;;;5075615;28;20216;-70
2021/12/11 02:51:17;;;;;;;4.55;4.15;;;16.00;26.70;;;;;;5075721;28;20207;-70
2021/12/11 02:53:53;;;;;;;4.70;4.30;;;16.00;26.90;;;;;;5075140;28;20211;-70
2021/12/11 02:56:26;;;;;;;4.90;4.47;;;16.00;26.80;;;;;;5075761;28;20207;-70
2021/12/11 02:58:57;;;;;;;4.80;4.38;;;15.90;26.80;;;;;;5075913;28;20514;-70
2021/12/11 03:01:29;;;;;;;4.88;4.47;;;15.90;26.80;;;;;;5078704;28;20588;-69
2021/12/11 03:04:06;;;;;;;4.63;4.22;;;15.90;27.00;;;;;;5078314;28;20309;-69
2021/12/11 03:06:40;;;;;;;5.20;4.70;;;15.90;27.00;;;;;;5078391;28;20298;-70
2021/12/11 03:09:11;;;;;;;4.65;4.22;;;15.90;27.00;;;;;;5079058;28;20560;-70
2021/12/11 03:11:39;;;;;;;4.15;3.85;;;15.80;27.00;;;;;;5078478;28;20235;-70
2021/12/11 03:14:12;;;;;;;5.00;4.60;;;15.80;27.00;;;;;;5078669;28;20204;-70
2021/12/11 03:16:40;;;;;;;4.63;4.22;;;15.80;26.90;;;;;;5078577;28;20236;-70
2021/12/11 03:19:11;;;;;;;5.07;4.68;;;15.80;27.10;;;;;;5078769;28;20208;-69
2021/12/11 03:21:39;;;;;;;4.70;4.15;;;15.80;26.90;;;;;;5078040;28;20583;-70
2021/12/11 03:24:09;;;;;;;5.20;4.72;;;15.80;26.90;;;;;;5078699;28;20223;-70
2021/12/11 03:26:38;;;;;;;5.03;4.63;;;15.70;26.90;;;;;;5067629;28;20251;-70
2021/12/11 03:29:07;;;;;;;5.32;4.80;;;15.70;26.90;;;;;;5078170;28;20204;-70
2021/12/11 03:31:36;;;;;;;4.90;4.50;;;15.70;26.90;;;;;;5078274;28;20212;-70
2021/12/11 03:34:07;;;;;;;5.07;4.68;;;15.70;26.90;;;;;;5078427;28;20226;-70
2021/12/11 03:36:35;;;;;;;4.50;4.10;;;15.70;26.70;;;;;;5078482;28;20334;-70
2021/12/11 03:39:07;;;;;;;4.97;4.53;;;15.60;26.70;;;;;;5078158;28;20597;-70
2021/12/11 03:41:36;;;;;;;4.85;4.35;;;15.60;26.70;;;;;;5077974;28;20220;-70
2021/12/11 03:44:03;;;;;;;4.80;4.40;;;15.60;26.80;;;;;;5078040;28;20506;-70
2021/12/11 03:46:30;;;;;;;4.68;4.28;;;15.60;26.80;;;;;;5078103;28;20223;-70
2021/12/11 03:49:00;;;;;;;4.85;4.45;;;15.60;27.00;;;;;;5077621;28;20219;-70
2021/12/11 03:51:30;;;;;;;4.50;4.10;;;15.60;26.90;;;;;;5078264;28;20211;-71
2021/12/11 03:54:00;;;;;;;4.80;4.40;;;15.50;26.90;;;;;;5077854;28;20212;-68
2021/12/11 03:56:27;;;;;;;4.60;4.20;;;15.50;26.90;;;;;;5077987;28;20216;-68
2021/12/11 03:58:56;;;;;;;4.32;4.00;;;15.50;26.90;;;;;;5078288;28;20608;-68
2021/12/11 04:01:27;;;;;;;5.20;4.72;;;15.50;26.80;;;;;;5077727;28;20522;-68
2021/12/11 04:03:58;;;;;;;4.90;4.50;;;15.50;27.60;;;;;;5077085;28;20238;-69
2021/12/11 04:06:26;;;;;;;4.90;4.50;;;15.50;27.00;;;;;;5077431;28;20209;-68
2021/12/11 04:08:55;;;;;;;4.70;4.30;;;15.40;26.90;;;;;;5077644;28;20495;-69
2021/12/11 04:11:26;;;;;;;4.70;4.30;;;15.40;26.70;;;;;;5076583;28;20781;-69
2021/12/11 04:13:59;;;;;;;4.68;4.25;;;15.40;26.80;;;;;;5076776;28;20208;-68
2021/12/11 04:16:27;;;;;;;4.47;4.07;;;15.40;27.00;;;;;;5076630;28;20216;-70
2021/12/11 04:18:54;;;;;;;4.65;4.25;;;15.40;26.90;;;;;;5077100;28;20208;-70
2021/12/11 04:21:22;;;;;;;4.45;4.07;;;15.30;26.80;;;;;;5077258;28;20228;-69
2021/12/11 04:23:50;;;;;;;4.30;3.97;;;15.30;26.80;;;;;;5076950;28;20204;-70
2021/12/11 04:26:18;;;;;;;4.70;4.30;;;15.30;26.80;;;;;;5077393;28;20208;-69
2021/12/11 04:28:46;;;;;;;4.65;4.28;;;15.30;26.90;;;;;;5066125;28;20228;-70
2021/12/11 04:31:21;;;;;;;5.43;4.95;;;15.30;26.70;;;;;;5077021;28;20207;-70
2021/12/11 04:33:50;;;;;;;4.20;3.80;;;15.30;27.00;;;;;;5076676;28;20211;-70
2021/12/11 04:36:22;;;;;;;4.50;4.10;;;15.20;26.70;;;;;;5076939;28;20219;-70
2021/12/11 04:38:50;;;;;;;4.60;4.20;;;15.20;26.90;;;;;;5077155;28;20209;-69
2021/12/11 04:41:30;;;;;;;5.22;4.82;;;15.20;27.10;;;;;;5076979;28;20226;-69
2021/12/11 04:44:00;;;;;;;4.72;4.32;;;15.20;26.90;;;;;;5076328;28;20212;-70
2021/12/11 04:46:29;;;;;;;4.57;4.18;;;15.20;26.80;;;;;;5076506;28;20212;-68
2021/12/11 04:49:03;;;;;;;4.65;4.10;;;15.20;26.90;;;;;;5076616;28;20208;-68
2021/12/11 04:51:38;;;;;;;5.10;4.65;;;15.10;26.90;;;;;;5076886;28;20747;-68
2021/12/11 04:54:22;;;;;;;4.80;4.40;;;15.10;26.70;;;;;;5076554;28;20204;-70
2021/12/11 04:57:38;;;;;;;4.60;4.20;;;15.10;26.80;;;;;;5076718;28;20239;-69
2021/12/11 05:00:08;;;;;;;4.63;4.22;;;15.10;26.80;;;;;;5076609;28;20345;-68
2021/12/11 05:05:45;;;;;;;4.88;4.47;;;15.10;26.70;;;;;;5071023;28;20792;-68
2021/12/11 05:08:37;;;;;;;4.90;4.50;;;15.10;27.00;;;;;;5076595;28;20208;-68
2021/12/11 05:11:08;;;;;;;4.93;4.50;;;15.00;26.80;;;;;;5076174;28;20324;-68
2021/12/11 05:13:35;;;;;;;4.55;4.20;;;15.00;26.90;;;;;;5076517;28;20316;-68
2021/12/11 05:16:07;;;;;;;5.53;5.03;;;15.00;26.80;;;;;;5076207;28;20219;-68
2021/12/11 05:18:39;;;;;;;4.68;4.28;;;15.00;26.70;;;;;;5076486;28;20211;-69
2021/12/11 05:21:09;;;;;;;4.82;4.43;;;15.00;27.00;;;;;;5056286;28;20239;-68
2021/12/11 05:23:36;;;;;;;4.88;4.47;;;14.90;26.70;;;;;;5056331;28;20208;-69
2021/12/11 05:26:05;;;;;;;4.65;4.25;;;14.90;26.90;;;;;;5055962;28;20216;-69
2021/12/11 05:28:32;;;;;;;4.90;4.50;;;14.90;26.80;;;;;;5056079;28;20208;-70
2021/12/11 05:31:03;;;;;;;5.00;4.60;;;14.90;26.80;;;;;;5045361;28;20635;-69
2021/12/11 05:33:31;;;;;;;4.43;4.13;;;14.90;26.80;;;;;;5055750;28;20216;-69
2021/12/11 05:35:59;;;;;;;4.70;4.30;;;14.90;26.80;;;;;;5075648;28;20216;-69
2021/12/11 05:38:27;;;;;;;5.40;4.90;;;14.90;27.00;;;;;;5075806;28;20212;-69
2021/12/11 05:40:58;;;;;;;4.88;4.47;;;14.90;26.90;;;;;;5076221;28;20224;-70
2021/12/11 05:43:26;;;;;;;5.20;4.78;;;14.90;26.90;;;;;;5076879;28;20204;-69
2021/12/11 05:45:53;;;;;;;5.10;4.70;;;14.80;26.90;;;;;;5079696;28;20250;-70
2021/12/11 05:48:21;;;;;;;5.07;4.57;;;14.80;26.80;;;;;;5078635;28;20208;-69
2021/12/11 05:50:51;;;;;;;5.60;5.00;;;14.80;26.80;;;;;;5076462;28;20200;-70
2021/12/11 05:53:21;;;;;;;4.68;4.28;;;14.70;26.80;;;;;;5077013;28;20212;-70
2021/12/11 05:55:50;;;;;;;5.25;4.75;;;14.80;26.90;;;;;;5075996;28;20219;-69
2021/12/11 05:58:34;;;;;;;5.18;4.70;;;14.70;26.80;;;;;;5075383;28;20625;-69
2021/12/11 06:01:04;;;;;;;5.03;4.63;;;14.70;26.90;;;;;;5075828;28;20228;-68
2021/12/11 06:03:31;;;;;;;5.45;4.95;;;14.70;26.90;;;;;;5075515;28;20204;-68
2021/12/11 06:05:59;;;;;;;5.10;4.70;;;14.70;26.90;;;;;;5075796;28;20292;-68
2021/12/11 06:08:28;;;;;;;4.75;4.35;;;14.70;26.90;;;;;;5075861;28;20208;-69
2021/12/11 06:10:55;;;;;;;5.20;4.72;;;14.70;27.00;;;;;;5075752;28;20247;-68
2021/12/11 06:13:22;;;;;;;4.80;4.40;;;14.70;26.90;;;;;;5076197;28;20238;-69
2021/12/11 06:15:49;;;;;;;4.88;4.47;;;14.60;26.90;;;;;;5075605;28;20208;-69
2021/12/11 06:18:18;;;;;;;4.72;4.32;;;14.60;27.00;;;;;;5075631;28;20203;-70
2021/12/11 06:20:47;;;;;;;5.00;4.60;;;14.60;26.90;;;;;;5075591;28;20255;-69
2021/12/11 06:23:15;;;;;;;4.75;4.35;;;14.60;27.00;;;;;;5075841;28;20489;-69
2021/12/11 06:25:43;;;;;;;5.30;4.80;;;14.60;27.00;;;;;;5076017;28;20205;-69
2021/12/11 06:28:10;;;;;;;5.25;4.85;;;14.60;26.90;;;;;;5075610;28;20286;-68
2021/12/11 06:30:39;;;;;;;4.93;4.53;;;14.50;26.90;;;;;;5074688;28;20201;-69
2021/12/11 06:33:07;;;;;;;4.90;4.50;;;14.60;26.90;;;;;;5075677;28;20480;-69
2021/12/11 06:35:38;;;;;;;5.03;4.63;;;14.50;27.00;;;;;;5068715;28;20219;-69
2021/12/11 06:38:07;;;;;;;5.47;4.97;;;14.50;27.60;;;;;;5077860;28;20216;-68
2021/12/11 06:40:35;;;;;;;4.72;4.32;;;14.50;27.00;;;;;;5079375;28;20491;-68
2021/12/11 06:43:05;;;;;;;4.65;4.25;;;14.50;27.00;;;;;;5079063;28;20208;-68
2021/12/11 06:45:32;;;;;;;5.03;4.53;;;14.40;26.90;;;;;;5079550;28;20208;-69
2021/12/11 06:48:00;;;;;;;5.45;4.95;;;14.50;27.10;;;;;;5079149;28;20287;-68
2021/12/11 06:50:27;;;;;;;5.05;4.65;;;14.40;27.00;;;;;;5079171;28;20196;-68
2021/12/11 06:52:55;;;;;;;5.47;4.97;;;14.40;27.10;;;;;;5078359;28;20200;-68
2021/12/11 06:55:23;;;;;;;5.15;4.63;;;14.40;27.00;;;;;;5078538;28;20215;-68
2021/12/11 06:57:51;;;;;;;5.05;4.63;;;14.40;27.00;;;;;;5078510;28;20223;-68
2021/12/11 07:00:21;;;;;;;4.88;4.47;;;14.40;27.00;;;;;;5078806;28;20501;-68
2021/12/11 07:02:49;;;;;;;4.97;4.47;;;14.30;27.00;;;;;;5078576;28;20209;-68
2021/12/11 07:05:16;;;;;;;5.18;4.78;;;14.30;27.00;;;;;;5078393;28;20614;-69
2021/12/11 07:07:44;;;;;;;4.97;4.57;;;14.40;27.10;;;;;;5078632;28;20212;-69
2021/12/11 07:10:14;;;;;;;5.07;4.68;;;14.30;27.00;;;;;;5078493;28;20212;-69
2021/12/11 07:12:42;;;;;;;4.80;4.40;;;14.30;27.00;;;;;;5078814;28;20215;-69
2021/12/11 07:15:11;;;;;;;4.75;4.35;;;14.30;27.10;;;;;;5078228;28;20216;-69
2021/12/11 07:17:40;;;;;;;5.20;4.72;;;14.30;27.10;;;;;;5078193;28;20235;-68
2021/12/11 07:20:11;;;;;;;4.65;4.25;;;14.30;27.00;;;;;;5078337;28;20235;-68
2021/12/11 07:22:41;;;;;;;4.60;4.20;;;14.30;27.10;;;;;;5078619;28;20235;-69
2021/12/11 07:25:16;;;;;;;5.03;4.63;;;14.30;27.10;;;;;;5078119;28;20204;-69
2021/12/11 07:27:43;;;;;;;5.18;4.68;;;14.20;27.00;;;;;;5077964;28;20255;-69
2021/12/11 07:30:12;;;;;;;5.10;4.70;;;14.20;27.10;;;;;;5077803;28;20606;-69
2021/12/11 07:32:40;;;;;;;4.80;4.40;;;14.20;27.10;;;;;;5077887;28;20212;-70
2021/12/11 07:35:09;;;;;;;4.85;4.45;;;14.20;27.30;;;;;;5077684;28;20209;-69
2021/12/11 07:37:36;;;;;;;4.47;4.10;;;14.20;27.10;;;;;;5077320;28;20212;-69
2021/12/11 07:40:06;;;;;;;5.07;4.68;;;14.20;27.10;;;;;;5077183;28;20241;-69
2021/12/11 07:42:33;;;;;;;4.85;4.45;;;14.20;27.10;;;;;;5077524;28;20239;-70
2021/12/11 07:45:00;;;;;;;5.22;4.75;;;14.10;27.10;;;;;;5066561;28;20567;-69
2021/12/11 07:47:27;;;;;;;5.00;4.60;;;14.20;27.30;;;;;;5076538;28;20208;-69
2021/12/11 07:49:56;;;;;;;4.97;4.55;;;14.10;27.00;;;;;;5077450;28;20215;-69
2021/12/11 07:52:23;;;;;;;6.82;6.13;;;14.10;27.20;;;;;;5076828;28;20207;-68
2021/12/11 07:54:50;;;;;;;7.55;6.65;;;14.10;27.10;;;;;;5077366;28;20208;-69
2021/12/11 07:57:17;;;;;;;7.95;6.15;;;14.10;27.20;;;;;;5077615;28;20209;-69
2021/12/11 07:59:44;;;;;;;9.15;6.07;;;14.10;27.20;;;;;;5077455;28;20240;-69
2021/12/11 08:02:12;;;;;;;6.97;6.28;;;14.00;27.20;;;;;;5076441;28;20228;-69
2021/12/11 08:04:40;;;;;;;6.90;6.20;;;14.00;27.30;;;;;;5077226;28;20204;-68
2021/12/11 08:07:09;;;;;;;6.88;6.18;;;14.10;27.30;;;;;;5076743;28;20587;-69
2021/12/11 08:09:36;;;;;;;7.68;6.45;;;14.10;27.40;;;;;;5076790;28;20200;-68
2021/12/11 08:12:05;;;;;;;6.70;6.00;;;14.10;28.00;;;;;;5077025;28;20358;-68
2021/12/11 08:14:33;;;;;;;6.85;5.80;;;14.10;27.40;;;;;;5077265;28;20227;-68
2021/12/11 08:17:04;;;;;;;6.60;6.00;;;14.10;27.50;;;;;;5076893;28;20227;-68
2021/12/11 08:19:32;;;;;;;6.10;5.50;;;14.10;27.50;;;;;;5076578;28;20504;-68
2021/12/11 08:22:02;;;;;;;6.70;6.00;;;14.10;27.50;;;;;;5076792;28;20231;-68
2021/12/11 08:24:31;;;;;;;6.18;5.65;;;14.10;27.60;;;;;;5076525;28;20217;-69
2021/12/11 08:27:01;;;;;;;6.47;5.63;;;14.10;27.50;;;;;;5076172;28;20216;-69
2021/12/11 08:29:28;;;;;;;7.05;6.03;;;14.10;27.60;;;;;;5075510;28;20209;-69
2021/12/11 08:31:59;;;;;;;7.78;6.03;;;14.10;27.50;;;;;;5075396;28;20341;-68
2021/12/11 08:34:27;;;;;;;6.88;5.80;;;14.00;27.50;;;;;;5075936;28;20235;-68
2021/12/11 08:36:54;;;;;;;6.40;5.80;;;14.10;27.50;;;;;;5075251;28;20518;-69
2021/12/11 08:39:23;;;;;;;6.80;5.35;;;14.10;27.60;;;;;;5073822;28;20208;-69
2021/12/11 08:41:54;;;;;;;7.60;5.57;;;14.00;28.20;;;;;;5074911;28;20235;-69
2021/12/11 08:44:24;;;;;;;6.78;5.43;;;14.10;27.60;;;;;;5074981;28;20231;-69
2021/12/11 08:46:54;;;;;;;7.40;5.88;;;14.00;27.50;;;;;;5073890;28;20411;-69
2021/12/11 08:49:25;;;;;;;6.35;5.75;;;14.00;27.60;;;;;;5073828;28;20481;-68
2021/12/11 08:51:55;;;;;;;7.55;5.55;;;14.00;27.50;;;;;;5072806;28;20467;-69
2021/12/11 08:54:25;;;;;;;6.50;5.90;;;14.10;27.70;;;;;;5073694;28;20200;-68
2021/12/11 08:56:55;;;;;;;6.18;5.57;;;14.00;27.50;;;;;;5074811;28;20205;-69
2021/12/11 08:59:25;;;;;;;6.35;5.75;;;14.10;27.60;;;;;;5064224;28;20426;-68
2021/12/11 09:01:55;;;;;;;7.43;5.90;;;14.00;27.60;;;;;;5073188;28;20235;-69
2021/12/11 09:04:25;;;;;;;6.38;5.78;;;14.00;27.60;;;;;;5074687;28;20204;-69
2021/12/11 09:06:56;;;;;;;6.10;5.50;;;14.00;27.50;;;;;;5073298;28;20238;-69
2021/12/11 09:09:28;;;;;;;5.93;5.43;;;14.00;27.50;;;;;;5073154;28;20212;-69
2021/12/11 09:12:04;;;;;;;5.90;5.30;;;14.00;27.60;;;;;;5074915;28;20251;-68
2021/12/11 09:14:35;;;;;;;6.22;5.63;;;14.00;27.50;;;;;;5074435;28;20196;-68
2021/12/11 09:17:07;;;;;;;7.03;5.75;;;14.00;27.60;;;;;;5075056;28;20205;-68
2021/12/11 09:19:38;;;;;;;9.88;7.30;;;14.00;27.60;;;;;;5074294;28;20219;-69
2021/12/11 09:22:12;;;;;;;14.00;8.77;;;14.00;27.50;;;;;;5073908;28;20220;-69
2021/12/11 09:24:42;;;;;;;9.55;8.65;;;14.00;27.60;;;;;;5074492;28;20203;-69
2021/12/11 09:27:14;;;;;;;8.35;7.57;;;14.00;27.80;;;;;;5073935;28;20506;-68
2021/12/11 09:29:51;;;;;;;8.50;7.60;;;14.00;27.80;;;;;;5073928;28;20212;-69
2021/12/11 09:32:25;;;;;;;9.38;6.97;;;14.00;27.80;;;;;;5073504;28;20200;-69
2021/12/11 09:34:55;;;;;;;8.20;6.78;;;14.00;27.90;;;;;;5071967;28;20235;-69
2021/12/11 09:37:23;;;;;;;8.07;7.20;;;14.00;28.50;;;;;;5061799;28;20243;-68
2021/12/11 09:39:56;;;;;;;7.32;6.63;;;14.00;28.00;;;;;;5072282;28;20200;-68
2021/12/11 09:42:22;;;;;;;7.10;6.50;;;14.00;28.00;;;;;;5072887;28;20232;-69
2021/12/11 09:44:56;;;;;;;7.18;6.47;;;14.10;28.20;;;;;;5073407;28;20219;-69
2021/12/11 09:47:30;;;;;;;7.40;6.60;;;14.10;28.20;;;;;;5072229;28;20472;-68
2021/12/11 09:50:04;;;;;;;6.65;6.05;;;14.10;28.30;;;;;;5062187;28;20552;-69
2021/12/11 09:52:33;;;;;;;6.13;5.53;;;14.10;28.30;;;;;;5071105;28;20207;-69
2021/12/11 09:55:02;;;;;;;7.05;5.47;;;14.10;28.30;;;;;;5072327;28;20413;-68
2021/12/11 09:57:35;;;;;;;6.15;5.55;;;14.10;28.40;;;;;;5072607;28;20204;-69
2021/12/11 10:00:08;;;;;;;7.07;5.70;;;14.20;28.40;;;;;;5073620;28;20208;-68
2021/12/11 10:02:35;;;;;;;6.72;5.70;;;14.10;28.40;;;;;;5073388;28;20615;-68
2021/12/11 10:05:12;;;;;;;6.03;5.43;;;14.20;28.40;;;;;;5072707;28;20219;-68
2021/12/11 10:07:49;;;;;;;6.40;5.32;;;14.10;28.40;;;;;;5062651;28;20223;-68
2021/12/11 10:10:21;;;;;;;5.68;5.18;;;14.20;28.40;;;;;;5077258;28;20262;-68
2021/12/11 10:12:52;;;;;;;6.10;5.15;;;14.20;28.40;;;;;;5077021;28;20201;-68
2021/12/11 10:15:24;;;;;;;6.55;5.15;;;14.20;28.40;;;;;;5077748;28;20204;-68
2021/12/11 10:17:55;;;;;;;6.13;5.40;;;14.20;28.40;;;;;;5077045;28;20204;-69
2021/12/11 10:20:27;;;;;;;5.78;5.25;;;14.20;29.00;;;;;;5077069;28;20806;-68
2021/12/11 10:22:59;;;;;;;5.25;4.75;;;14.20;28.30;;;;;;5077556;28;20826;-68
2021/12/11 10:25:30;;;;;;;5.75;5.13;;;14.20;28.30;;;;;;5077084;28;20219;-68
2021/12/11 10:27:58;;;;;;;5.22;4.70;;;14.20;28.30;;;;;;5077194;28;20205;-68
2021/12/11 10:30:27;;;;;;;5.35;4.85;;;14.20;28.30;;;;;;5076396;28;20208;-68
2021/12/11 10:32:56;;;;;;;6.00;5.40;;;14.30;28.30;;;;;;5076491;28;20215;-68
2021/12/11 10:35:28;;;;;;;5.68;5.18;;;14.20;28.20;;;;;;5076154;28;20204;-68
2021/12/11 10:37:56;;;;;;;5.20;4.80;;;14.20;28.20;;;;;;5076545;28;20215;-68
2021/12/11 10:40:27;;;;;;;5.47;4.97;;;14.20;28.20;;;;;;5075513;28;20214;-68
2021/12/11 10:43:00;;;;;;;5.70;5.20;;;14.20;28.20;;;;;;5076559;28;20786;-68
2021/12/11 10:45:30;;;;;;;5.03;4.63;;;14.20;28.10;;;;;;5075357;28;20591;-68
2021/12/11 10:48:01;;;;;;;5.22;4.72;;;14.20;28.10;;;;;;5076457;28;20216;-68
2021/12/11 10:50:31;;;;;;;15.25;13.70;;;14.20;28.10;;;;;;5076380;28;20208;-68
2021/12/11 10:52:58;;;;;;;11.35;9.48;;;14.20;28.10;;;;;;5076532;28;20211;-68
2021/12/11 10:55:29;;;;;;;9.20;8.30;;;14.20;28.00;;;;;;5076696;28;20234;-68
2021/12/11 10:58:00;;;;;;;16.45;14.95;;;14.20;28.00;;;;;;5075989;28;20205;-69
2021/12/11 11:00:33;;;;;;;16.58;14.98;;;14.20;28.00;;;;;;5076324;28;20215;-69
2021/12/11 11:03:00;;;;;;;13.80;12.60;;;14.20;28.00;;;;;;5064915;28;20523;-69
2021/12/11 11:05:30;;;;;;;14.80;13.20;;;14.20;28.10;;;;;;5074784;28;20216;-69
2021/12/11 11:07:58;;;;;;;12.43;11.23;;;14.20;28.10;;;;;;5075262;28;20204;-69
2021/12/11 11:10:29;;;;;;;11.95;10.85;;;14.20;28.10;;;;;;5075826;28;20311;-69
2021/12/11 11:12:58;;;;;;;11.23;10.20;;;14.20;28.20;;;;;;5075527;28;20212;-68
2021/12/11 11:15:26;;;;;;;10.77;9.68;;;14.20;28.30;;;;;;5075606;28;20204;-68
2021/12/11 11:17:56;;;;;;;10.25;9.25;;;14.20;28.30;;;;;;5074775;28;20208;-70
2021/12/11 11:20:27;;;;;;;10.20;9.27;;;14.30;28.40;;;;;;5075796;28;20207;-69
2021/12/11 11:22:55;;;;;;;9.63;8.73;;;14.30;28.50;;;;;;5075644;28;20235;-68
2021/12/11 11:25:25;;;;;;;31.50;28.65;;;14.30;28.40;;;;;;5064711;28;20232;-69
2021/12/11 11:27:57;;;;;;;18.65;16.95;;;14.30;28.50;;;;;;5075455;28;20208;-68
2021/12/11 11:30:28;;;;;;;16.00;14.50;;;14.30;28.50;;;;;;5075978;28;20240;-69
2021/12/11 11:32:58;;;;;;;15.50;13.90;;;14.30;28.70;;;;;;5075488;28;20231;-69
2021/12/11 11:35:30;;;;;;;14.57;13.18;;;14.30;28.80;;;;;;5074971;28;20208;-68
2021/12/11 11:38:00;;;;;;;14.02;12.57;;;14.30;28.90;;;;;;5075984;28;20216;-68
2021/12/11 11:40:30;;;;;;;13.85;12.55;;;14.40;29.10;;;;;;5075890;28;20208;-68
2021/12/11 11:42:58;;;;;;;13.07;11.88;;;14.40;29.20;;;;;;5076836;28;20244;-69
2021/12/11 11:45:26;;;;;;;12.45;11.25;;;14.50;29.30;;;;;;5075795;28;20212;-69
2021/12/11 11:47:55;;;;;;;11.18;10.15;;;14.50;29.40;;;;;;5076003;28;20205;-70
2021/12/11 11:50:27;;;;;;;11.38;9.65;;;14.50;29.40;;;;;;5075620;28;20204;-69
2021/12/11 11:52:54;;;;;;;10.63;9.73;;;14.60;29.40;;;;;;5075843;28;20196;-69
2021/12/11 11:55:25;;;;;;;9.57;8.57;;;14.60;29.40;;;;;;5076137;28;20205;-71
2021/12/11 11:57:54;;;;;;;10.05;9.02;;;14.70;29.40;;;;;;5075702;28;20205;-71
2021/12/11 12:00:28;;;;;;;8.65;7.95;;;14.70;29.40;;;;;;5075387;28;20215;-71
2021/12/11 12:02:58;;;;;;;8.55;7.75;;;14.70;29.40;;;;;;5075036;28;20236;-70
2021/12/11 12:05:29;;;;;;;9.23;7.50;;;14.80;29.40;;;;;;5075341;28;20503;-71
2021/12/11 12:07:57;;;;;;;8.02;7.22;;;14.80;29.30;;;;;;5075182;28;20231;-70
2021/12/11 12:10:27;;;;;;;7.47;6.78;;;14.80;29.30;;;;;;5064529;28;20252;-70
2021/12/11 12:12:55;;;;;;;7.20;6.40;;;14.90;29.20;;;;;;5073245;28;20514;-70
2021/12/11 12:15:26;;;;;;;7.03;6.43;;;14.90;29.20;;;;;;5074616;28;20209;-70
2021/12/11 12:17:54;;;;;;;6.35;5.80;;;14.90;29.20;;;;;;5075096;28;20501;-70
2021/12/11 12:20:23;;;;;;;7.50;6.50;;;15.00;29.20;;;;;;5064072;28;20243;-71
2021/12/11 12:22:53;;;;;;;5.95;5.30;;;15.00;29.10;;;;;;5073432;28;20626;-70
2021/12/11 12:25:21;;;;;;;6.32;5.72;;;15.00;29.00;;;;;;5073721;28;20206;-71
2021/12/11 12:27:48;;;;;;;6.60;6.00;;;15.00;29.00;;;;;;5074026;28;20211;-70
2021/12/11 12:30:20;;;;;;;7.47;5.40;;;15.10;29.00;;;;;;5074240;28;20395;-70
2021/12/11 12:32:51;;;;;;;8.05;6.80;;;15.10;28.90;;;;;;5062987;28;20228;-70
2021/12/11 12:35:20;;;;;;;10.75;5.82;;;15.10;28.90;;;;;;5074736;28;20705;-70
2021/12/11 12:37:49;;;;;;;6.35;5.65;;;15.10;28.80;;;;;;5074257;28;20200;-71
2021/12/11 12:40:27;;;;;;;6.40;5.43;;;15.20;28.90;;;;;;5073749;28;20212;-70
2021/12/11 12:43:04;;;;;;;5.78;5.07;;;15.20;28.90;;;;;;5074526;28;20293;-71
2021/12/11 12:45:36;;;;;;;6.50;4.97;;;15.20;28.90;;;;;;5075063;28;20204;-70
2021/12/11 12:48:07;;;;;;;6.32;4.85;;;15.20;29.00;;;;;;5074208;28;20595;-70
2021/12/11 12:50:39;;;;;;;5.03;4.57;;;15.30;29.00;;;;;;5074943;28;20392;-70
2021/12/11 12:53:10;;;;;;;5.32;4.82;;;15.30;29.00;;;;;;5074058;28;20208;-71
2021/12/11 12:55:41;;;;;;;13.73;12.27;;;15.30;28.90;;;;;;5074582;28;20471;-70
2021/12/11 12:58:12;;;;;;;15.57;12.35;;;15.30;28.90;;;;;;5057300;28;20196;-70
2021/12/11 13:00:44;;;;;;;13.98;12.25;;;15.30;28.90;;;;;;5073668;28;20573;-70
2021/12/11 13:03:18;;;;;;;16.70;11.95;;;15.40;28.90;;;;;;5073758;28;20216;-70
2021/12/11 13:05:52;;;;;;;17.05;11.27;;;15.40;28.80;;;;;;5074216;28;20211;-70